createdAt,value
2023-05-05T00:01:04.605Z,98398.66
2023-05-05T00:03:30.823Z,98403.00
2023-05-05T00:05:56.988Z,98395.97
2023-05-05T00:08:23.078Z,98395.97
2023-05-05T00:10:49.268Z,98395.97
2023-05-05T00:13:15.513Z,98393.28
2023-05-05T00:15:41.686Z,98394.13
2023-05-05T00:18:07.949Z,98392.47
2023-05-05T00:20:34.121Z,98392.47
2023-05-05T00:23:00.227Z,98387.94
2023-05-05T00:25:26.515Z,98395.16
2023-05-05T00:27:52.690Z,98386.31
2023-05-05T00:30:18.996Z,98389.78
2023-05-05T00:32:45.201Z,98388.97
2023-05-05T00:35:11.444Z,98380.13
2023-05-05T00:37:37.738Z,98384.44
2023-05-05T00:40:04.073Z,98373.72
2023-05-05T00:42:30.389Z,98376.41
2023-05-05T00:44:56.935Z,98371.28
2023-05-05T00:47:23.153Z,98367.53
2023-05-05T00:49:49.244Z,98369.41
2023-05-05T00:52:15.431Z,98368.59
2023-05-05T00:54:41.557Z,98367.53
2023-05-05T00:57:07.654Z,98372.09
2023-05-05T00:59:33.773Z,98366.72
2023-05-05T01:01:59.983Z,98376.41
2023-05-05T01:04:26.120Z,98367.53
2023-05-05T01:06:52.215Z,98367.53
2023-05-05T01:09:18.345Z,98366.72
2023-05-05T01:11:44.439Z,98381.75
2023-05-05T01:14:10.580Z,98369.41
2023-05-05T01:16:36.774Z,98368.59
2023-05-05T01:19:02.970Z,98372.91
2023-05-05T01:21:29.072Z,98372.09
2023-05-05T01:23:55.684Z,98365.91
2023-05-05T01:26:21.790Z,98368.59
2023-05-05T01:28:47.897Z,98380.13
2023-05-05T01:31:14.129Z,98365.91
2023-05-05T01:33:40.282Z,98368.59
2023-05-05T01:36:06.455Z,98361.38
2023-05-05T01:38:32.562Z,98362.38
2023-05-05T01:40:58.654Z,98357.03
2023-05-05T01:43:24.760Z,98346.31
2023-05-05T01:45:50.910Z,98349.00
2023-05-05T01:48:17.040Z,98359.72
2023-05-05T01:50:43.149Z,98355.19
2023-05-05T01:53:09.255Z,98353.31
2023-05-05T01:55:35.362Z,98363.22
2023-05-05T01:58:01.460Z,98365.06
2023-05-05T02:00:28.070Z,98353.53
2023-05-05T02:02:54.313Z,98358.91
2023-05-05T02:05:20.467Z,98369.63
2023-05-05T02:07:46.662Z,98374.97
2023-05-05T02:10:12.772Z,98374.97
2023-05-05T02:12:39.116Z,98384.88
2023-05-05T02:15:05.669Z,98383.00
2023-05-05T02:17:31.930Z,98383.00
2023-05-05T02:19:58.082Z,98383.00
2023-05-05T02:22:24.394Z,98378.69
2023-05-05T02:24:50.617Z,98386.50
2023-05-05T02:27:16.809Z,98383.00
2023-05-05T02:29:43.138Z,98391.06
2023-05-05T02:32:09.369Z,98394.53
2023-05-05T02:34:35.615Z,98389.19
2023-05-05T02:37:02.349Z,98395.38
2023-05-05T02:39:28.540Z,98399.09
2023-05-05T02:41:54.821Z,98385.69
2023-05-05T02:44:21.086Z,98401.75
2023-05-05T02:46:47.449Z,98399.09
2023-05-05T02:49:13.850Z,98397.22
2023-05-05T02:51:40.062Z,98401.75
2023-05-05T02:54:06.561Z,98398.28
2023-05-05T02:56:32.816Z,98404.44
2023-05-05T02:58:59.074Z,98401.75
2023-05-05T03:01:25.260Z,98401.75
2023-05-05T03:03:51.499Z,98402.59
2023-05-05T03:06:18.219Z,98398.28
2023-05-05T03:08:44.505Z,98399.31
2023-05-05T03:11:10.683Z,98413.31
2023-05-05T03:13:36.917Z,98406.31
2023-05-05T03:16:03.405Z,98411.66
2023-05-05T03:18:30.064Z,98412.47
2023-05-05T03:20:56.573Z,98419.72
2023-05-05T03:23:22.958Z,98423.19
2023-05-05T03:25:49.342Z,98422.38
2023-05-05T03:28:15.599Z,98421.56
2023-05-05T03:30:41.979Z,98418.09
2023-05-05T03:33:08.415Z,98415.41
2023-05-05T03:35:35.053Z,98418.91
2023-05-05T03:38:01.432Z,98421.56
2023-05-05T03:40:40.300Z,98423.19
2023-05-05T03:43:07.012Z,98425.88
2023-05-05T03:45:33.443Z,98425.28
2023-05-05T03:47:59.736Z,98434.34
2023-05-05T03:50:25.994Z,98432.28
2023-05-05T03:52:52.296Z,98436.00
2023-05-05T03:55:18.570Z,98431.47
2023-05-05T03:57:44.911Z,98437.03
2023-05-05T04:00:11.164Z,98435.19
2023-05-05T04:02:37.500Z,98437.84
2023-05-05T04:05:03.916Z,98437.84
2023-05-05T04:07:30.097Z,98436.22
2023-05-05T04:09:56.323Z,98429.81
2023-05-05T04:12:22.844Z,98428.19
2023-05-05T04:14:49.072Z,98430.88
2023-05-05T04:17:15.323Z,98429.00
2023-05-05T04:19:41.741Z,98422.81
2023-05-05T04:22:08.004Z,98425.50
2023-05-05T04:24:34.331Z,98425.50
2023-05-05T04:27:00.779Z,98430.88
2023-05-05T04:29:27.021Z,98429.81
2023-05-05T04:31:53.321Z,98426.31
2023-05-05T04:34:19.854Z,98440.53
2023-05-05T04:36:46.127Z,98436.00
2023-05-05T04:39:12.302Z,98435.19
2023-05-05T04:41:38.686Z,98434.34
2023-05-05T04:44:04.859Z,98444.25
2023-05-05T04:46:31.129Z,98445.06
2023-05-05T04:48:57.390Z,98453.13
2023-05-05T04:51:23.480Z,98450.44
2023-05-05T04:53:49.614Z,98443.44
2023-05-05T04:56:15.753Z,98450.44
2023-05-05T04:58:41.857Z,98454.97
2023-05-05T05:01:07.993Z,98456.84
2023-05-05T05:03:34.194Z,98454.16
2023-05-05T05:06:00.384Z,98457.66
2023-05-05T05:08:26.483Z,98459.53
2023-05-05T05:10:52.708Z,98465.69
2023-05-05T05:13:18.887Z,98472.69
2023-05-05T05:15:45.014Z,98469.41
2023-05-05T05:18:11.126Z,98469.41
2023-05-05T05:20:37.227Z,98472.91
2023-05-05T05:23:03.438Z,98475.59
2023-05-05T05:25:29.587Z,98475.59
2023-05-05T05:30:28.271Z,98484.44
2023-05-05T05:32:54.422Z,98472.06
2023-05-05T05:35:20.557Z,98473.75
2023-05-05T05:37:46.661Z,98470.25
2023-05-05T05:40:12.774Z,98479.09
2023-05-05T05:42:38.890Z,98475.59
2023-05-05T05:45:04.981Z,98481.78
2023-05-05T05:47:31.256Z,98485.25
2023-05-05T05:49:57.365Z,98482.59
2023-05-05T05:52:23.470Z,98480.09
2023-05-05T05:54:49.607Z,98482.78
2023-05-05T05:57:15.736Z,98487.13
2023-05-05T05:59:41.877Z,98493.31
2023-05-05T06:02:08.049Z,98492.50
2023-05-05T06:04:34.265Z,98499.47
2023-05-05T06:07:00.603Z,98492.69
2023-05-05T06:09:26.917Z,98494.56
2023-05-05T06:11:53.351Z,98495.38
2023-05-05T06:14:20.151Z,98489.19
2023-05-05T06:16:46.554Z,98499.91
2023-05-05T06:19:12.824Z,98503.41
2023-05-05T06:21:39.011Z,98497.03
2023-05-05T06:24:05.149Z,98512.25
2023-05-05T06:26:31.495Z,98504.22
2023-05-05T06:28:57.776Z,98502.59
2023-05-05T06:31:24.090Z,98500.72
2023-05-05T06:33:50.402Z,98512.25
2023-05-05T06:36:16.686Z,98506.91
2023-05-05T06:38:45.094Z,98507.13
2023-05-05T06:41:11.405Z,98508.78
2023-05-05T06:43:37.910Z,98516.00
2023-05-05T06:46:04.218Z,98511.44
2023-05-05T06:48:30.322Z,98511.44
2023-05-05T06:50:56.410Z,98516.00
2023-05-05T06:53:22.543Z,98516.81
2023-05-05T06:55:48.643Z,98519.50
2023-05-05T06:58:14.727Z,98527.53
2023-05-05T07:00:40.933Z,98522.97
2023-05-05T07:03:07.127Z,98524.03
2023-05-05T07:05:33.302Z,98526.72
2023-05-05T07:07:59.429Z,98527.53
2023-05-05T07:10:25.528Z,98526.72
2023-05-05T07:12:51.650Z,98532.88
2023-05-05T07:15:27.384Z,98530.19
2023-05-05T07:17:55.143Z,98529.19
2023-05-05T07:20:21.264Z,98530.19
2023-05-05T07:22:47.372Z,98530.00
2023-05-05T07:25:13.472Z,98535.38
2023-05-05T07:27:39.604Z,98530.00
2023-05-05T07:30:10.039Z,98531.88
2023-05-05T07:32:38.665Z,98532.69
2023-05-05T07:35:04.798Z,98523.81
2023-05-05T07:37:30.910Z,98524.66
2023-05-05T07:39:57.013Z,98526.50
2023-05-05T07:42:23.146Z,98523.81
2023-05-05T07:44:49.252Z,98531.03
2023-05-05T07:47:15.353Z,98526.50
2023-05-05T07:49:41.467Z,98529.19
2023-05-05T07:52:07.575Z,98537.00
2023-05-05T07:54:33.701Z,98541.53
2023-05-05T07:56:59.825Z,98541.53
2023-05-05T07:59:26.235Z,98544.22
2023-05-05T08:01:54.303Z,98548.53
2023-05-05T08:04:21.046Z,98545.03
2023-05-05T08:06:47.172Z,98552.25
2023-05-05T08:09:13.286Z,98560.91
2023-05-05T08:11:39.422Z,98558.22
2023-05-05T08:14:05.617Z,98560.09
2023-05-05T08:16:31.913Z,98559.03
2023-05-05T08:18:58.230Z,98555.56
2023-05-05T08:21:24.342Z,98562.53
2023-05-05T08:23:50.431Z,98555.56
2023-05-05T08:26:16.557Z,98560.91
2023-05-05T08:28:42.654Z,98563.34
2023-05-05T08:31:08.786Z,98562.53
2023-05-05T08:33:34.931Z,98564.41
2023-05-05T08:36:01.049Z,98567.91
2023-05-05T08:38:27.163Z,98568.72
2023-05-05T08:40:53.418Z,98572.25
2023-05-05T08:43:19.508Z,98572.25
2023-05-05T08:45:45.594Z,98573.88
2023-05-05T08:48:11.810Z,98572.00
2023-05-05T08:50:37.990Z,98573.06
2023-05-05T08:53:04.092Z,98563.16
2023-05-05T08:55:30.719Z,98569.34
2023-05-05T08:57:56.817Z,98563.16
2023-05-05T09:00:23.005Z,98563.16
2023-05-05T09:02:49.256Z,98570.16
2023-05-05T09:05:15.432Z,98579.03
2023-05-05T09:07:41.534Z,98567.47
2023-05-05T09:10:07.661Z,98574.50
2023-05-05T09:12:33.824Z,98573.66
2023-05-05T09:14:59.956Z,98571.81
2023-05-05T09:17:26.126Z,98571.81
2023-05-05T09:19:52.306Z,98579.84
2023-05-05T09:22:18.422Z,98575.31
2023-05-05T09:24:44.544Z,98576.97
2023-05-05T09:27:10.624Z,98567.88
2023-05-05T09:29:36.756Z,98573.25
2023-05-05T09:32:02.883Z,98560.88
2023-05-05T09:34:29.022Z,98571.38
2023-05-05T09:36:55.118Z,98573.25
2023-05-05T09:39:21.234Z,98570.34
2023-05-05T09:41:47.327Z,98565.00
2023-05-05T09:44:13.432Z,98565.00
2023-05-05T09:46:39.620Z,98568.50
2023-05-05T09:49:05.742Z,98566.63
2023-05-05T09:51:31.853Z,98570.34
2023-05-05T09:53:57.962Z,98572.81
2023-05-05T09:56:24.050Z,98572.81
2023-05-05T09:58:50.136Z,98574.47
2023-05-05T10:01:16.349Z,98575.28
2023-05-05T10:03:42.487Z,98573.41
2023-05-05T10:06:08.906Z,98569.91
2023-05-05T10:08:35.027Z,98574.03
2023-05-05T10:11:01.180Z,98568.66
2023-05-05T10:13:32.015Z,98571.97
2023-05-05T10:15:58.218Z,98564.13
2023-05-05T10:18:24.462Z,98566.81
2023-05-05T10:20:50.605Z,98562.06
2023-05-05T10:23:16.799Z,98562.88
2023-05-05T10:25:42.922Z,98555.88
2023-05-05T10:28:09.043Z,98554.84
2023-05-05T10:30:35.189Z,98557.53
2023-05-05T10:33:14.091Z,98550.28
2023-05-05T10:35:47.374Z,98553.81
2023-05-05T10:38:13.485Z,98547.63
2023-05-05T10:40:39.588Z,98550.09
2023-05-05T10:43:05.771Z,98546.59
2023-05-05T10:45:32.163Z,98540.19
2023-05-05T10:47:58.368Z,98539.38
2023-05-05T10:50:24.521Z,98534.81
2023-05-05T10:52:50.621Z,98524.75
2023-05-05T10:55:16.723Z,98523.94
2023-05-05T10:57:42.829Z,98517.53
2023-05-05T11:00:09.158Z,98522.88
2023-05-05T11:02:35.504Z,98516.50
2023-05-05T11:05:02.163Z,98512.16
2023-05-05T11:07:28.283Z,98510.91
2023-05-05T11:09:54.394Z,98507.41
2023-05-05T11:12:20.546Z,98499.38
2023-05-05T11:14:46.646Z,98496.47
2023-05-05T11:17:12.738Z,98496.47
2023-05-05T11:19:38.857Z,98499.16
2023-05-05T11:22:04.951Z,98498.94
2023-05-05T11:24:31.055Z,98489.88
2023-05-05T11:26:59.889Z,98489.88
2023-05-05T11:29:36.764Z,98486.13
2023-05-05T11:32:02.901Z,98469.25
2023-05-05T11:34:29.211Z,98470.91
2023-05-05T11:36:56.361Z,98467.97
2023-05-05T11:39:22.611Z,98467.16
2023-05-05T11:41:48.925Z,98470.66
2023-05-05T11:44:18.714Z,98467.16
2023-05-05T11:46:44.926Z,98471.28
2023-05-05T11:49:11.063Z,98467.78
2023-05-05T11:51:37.160Z,98469.41
2023-05-05T11:54:03.305Z,98465.69
2023-05-05T11:56:29.804Z,98468.38
2023-05-05T11:58:55.908Z,98472.69
2023-05-05T12:01:22.013Z,98463.84
2023-05-05T12:03:48.215Z,98458.47
2023-05-05T12:06:14.441Z,98459.28
2023-05-05T12:08:40.692Z,98461.97
2023-05-05T12:11:06.856Z,98461.75
2023-05-05T12:13:32.954Z,98467.13
2023-05-05T12:15:59.107Z,98470.63
2023-05-05T12:18:25.218Z,98466.06
2023-05-05T12:20:51.331Z,98465.06
2023-05-05T12:23:17.458Z,98468.56
2023-05-05T12:25:43.578Z,98472.03
2023-05-05T12:28:09.779Z,98478.22
2023-05-05T12:30:36.004Z,98479.03
2023-05-05T12:33:02.262Z,98479.03
2023-05-05T12:35:28.407Z,98482.56
2023-05-05T12:37:54.512Z,98482.56
2023-05-05T12:40:20.613Z,98482.56
2023-05-05T12:42:47.277Z,98494.91
2023-05-05T12:45:13.473Z,98499.25
2023-05-05T12:47:39.600Z,98503.56
2023-05-05T12:50:05.786Z,98504.63
2023-05-05T12:52:32.424Z,98510.56
2023-05-05T12:54:58.520Z,98515.13
2023-05-05T12:57:24.648Z,98523.97
2023-05-05T12:59:50.778Z,98523.78
2023-05-05T13:02:16.926Z,98530.75
2023-05-05T13:04:43.069Z,98562.13
2023-05-05T13:07:09.189Z,98576.34
2023-05-05T13:09:35.292Z,98609.38
2023-05-05T13:12:01.390Z,98596.56
2023-05-05T13:14:27.503Z,98608.34
2023-05-05T13:16:53.620Z,98600.28
2023-05-05T13:19:19.755Z,98601.91
2023-05-05T13:21:45.883Z,98609.16
2023-05-05T13:24:28.118Z,98606.47
2023-05-05T13:26:57.566Z,98601.91
2023-05-05T13:29:27.259Z,98587.69
2023-05-05T13:31:55.790Z,98579.66
2023-05-05T13:34:22.163Z,98567.06
2023-05-05T13:36:48.324Z,98555.50
2023-05-05T13:39:14.421Z,98542.09
2023-05-05T13:41:40.544Z,98536.75
2023-05-05T13:44:06.637Z,98511.78
2023-05-05T13:46:32.763Z,98460.84
2023-05-05T13:49:01.700Z,98458.16
2023-05-05T13:51:27.825Z,98484.97
2023-05-05T13:53:53.943Z,98493.63
2023-05-05T13:56:20.212Z,98474.84
2023-05-05T13:58:46.322Z,98464.13
2023-05-05T14:01:12.452Z,98453.41
2023-05-05T14:03:38.607Z,98466.81
2023-05-05T14:06:04.731Z,98461.44
2023-05-05T14:08:30.821Z,98464.13
2023-05-05T14:10:57.047Z,98451.53
2023-05-05T14:13:23.157Z,98467.63
2023-05-05T14:15:49.269Z,98465.75
2023-05-05T14:18:15.365Z,98462.25
2023-05-05T14:20:41.446Z,98459.56
2023-05-05T14:23:07.548Z,98463.06
2023-05-05T14:25:33.666Z,98471.13
2023-05-05T14:27:59.760Z,98468.44
2023-05-05T14:30:25.872Z,98463.31
2023-05-05T14:32:52.186Z,98476.47
2023-05-05T14:35:18.373Z,98477.31
2023-05-05T14:37:44.468Z,98482.69
2023-05-05T14:40:10.678Z,98479.16
2023-05-05T14:42:36.775Z,98476.47
2023-05-05T14:45:02.890Z,98478.16
2023-05-05T14:47:29.039Z,98489.88
2023-05-05T14:49:55.147Z,98482.69
2023-05-05T14:52:21.235Z,98487.22
2023-05-05T14:54:50.191Z,98489.88
2023-05-05T14:57:16.294Z,98490.94
2023-05-05T14:59:42.420Z,98492.56
2023-05-05T15:02:08.545Z,98495.25
2023-05-05T15:04:34.644Z,98495.25
2023-05-05T15:07:00.753Z,98487.22
2023-05-05T15:09:26.860Z,98481.03
2023-05-05T15:11:52.938Z,98474.84
2023-05-05T15:14:19.038Z,98478.34
2023-05-05T15:16:45.646Z,98471.34
2023-05-05T15:19:11.734Z,98462.47
2023-05-05T15:21:37.840Z,98476.47
2023-05-05T15:24:03.946Z,98470.31
2023-05-05T15:26:30.042Z,98475.66
2023-05-05T15:28:56.140Z,98470.31
2023-05-05T15:31:22.339Z,98471.97
2023-05-05T15:33:48.504Z,98469.28
2023-05-05T15:36:14.596Z,98469.28
2023-05-05T15:38:40.867Z,98468.44
2023-05-05T15:41:06.980Z,98463.91
2023-05-05T15:43:33.079Z,98478.16
2023-05-05T15:45:59.197Z,98483.72
2023-05-05T15:48:25.285Z,98478.34
2023-05-05T15:50:51.572Z,98479.16
2023-05-05T15:53:17.700Z,98486.41
2023-05-05T15:55:43.805Z,98485.59
2023-05-05T15:58:09.938Z,98487.22
2023-05-05T16:00:36.240Z,98481.03
2023-05-05T16:03:02.496Z,98474.84
2023-05-05T16:05:28.671Z,98469.50
2023-05-05T16:07:54.785Z,98474.03
2023-05-05T16:10:20.910Z,98475.66
2023-05-05T16:12:47.064Z,98483.72
2023-05-05T16:15:13.187Z,98490.75
2023-05-05T16:17:39.288Z,98524.75
2023-05-05T16:20:05.421Z,98541.69
2023-05-05T16:22:31.552Z,98572.00
2023-05-05T16:24:57.668Z,98574.69
2023-05-05T16:27:23.765Z,98568.50
2023-05-05T16:29:49.919Z,98577.56
2023-05-05T16:32:16.039Z,98586.22
2023-05-05T16:34:42.164Z,98586.44
2023-05-05T16:37:08.304Z,98582.94
2023-05-05T16:39:34.453Z,98574.91
2023-05-05T16:42:01.998Z,98571.19
2023-05-05T16:44:28.141Z,98573.88
2023-05-05T16:46:54.302Z,98567.66
2023-05-05T16:49:20.423Z,98563.97
2023-05-05T16:51:46.540Z,98559.63
2023-05-05T16:54:12.644Z,98551.56
2023-05-05T16:56:38.738Z,98558.00
2023-05-05T16:59:04.877Z,98556.13
2023-05-05T17:01:31.109Z,98548.06
2023-05-05T17:03:57.234Z,98530.34
2023-05-05T17:06:23.375Z,98538.41
2023-05-05T17:08:49.517Z,98544.59
2023-05-05T17:11:15.618Z,98555.31
2023-05-05T17:13:41.835Z,98543.75
2023-05-05T17:16:08.014Z,98541.09
2023-05-05T17:18:34.277Z,98541.91
2023-05-05T17:21:00.539Z,98545.59
2023-05-05T17:23:26.629Z,98534.88
2023-05-05T17:25:54.043Z,98543.75
2023-05-05T17:28:20.199Z,98546.44
2023-05-05T17:30:46.314Z,98558.00
2023-05-05T17:33:12.446Z,98557.19
2023-05-05T17:35:38.571Z,98553.66
2023-05-05T17:38:04.696Z,98545.59
2023-05-05T17:40:30.811Z,98546.44
2023-05-05T17:42:56.917Z,98545.59
2023-05-05T17:45:23.018Z,98552.00
2023-05-05T17:47:49.224Z,98552.81
2023-05-05T17:50:15.399Z,98552.00
2023-05-05T17:52:41.503Z,98548.28
2023-05-05T17:55:07.949Z,98534.06
2023-05-05T17:57:34.271Z,98539.41
2023-05-05T18:00:00.366Z,98551.19
2023-05-05T18:02:26.534Z,98552.81
2023-05-05T18:04:52.689Z,98546.66
2023-05-05T18:07:18.794Z,98557.38
2023-05-05T18:09:44.885Z,98552.81
2023-05-05T18:12:10.997Z,98554.69
2023-05-05T18:14:37.101Z,98556.56
2023-05-05T18:17:03.216Z,98539.66
2023-05-05T18:19:29.358Z,98543.16
2023-05-05T18:21:55.688Z,98531.59
2023-05-05T18:24:21.797Z,98531.59
2023-05-05T18:26:47.960Z,98533.44
2023-05-05T18:29:14.037Z,98526.25
2023-05-05T18:31:40.196Z,98523.78
2023-05-05T18:34:06.356Z,98527.28
2023-05-05T18:36:32.452Z,98528.94
2023-05-05T18:38:58.571Z,98521.69
2023-05-05T18:41:24.674Z,98527.28
2023-05-05T18:43:50.788Z,98528.94
2023-05-05T18:46:16.914Z,98528.09
2023-05-05T18:48:43.060Z,98524.81
2023-05-05T18:51:09.149Z,98528.31
2023-05-05T18:53:35.239Z,98533.69
2023-05-05T18:56:01.351Z,98541.72
2023-05-05T18:58:27.454Z,98537.19
2023-05-05T19:00:53.575Z,98529.94
2023-05-05T19:03:19.759Z,98537.19
2023-05-05T19:05:45.868Z,98529.13
2023-05-05T19:08:11.983Z,98526.66
2023-05-05T19:10:38.150Z,98522.13
2023-05-05T19:13:04.346Z,98524.81
2023-05-05T19:15:30.516Z,98523.78
2023-05-05T19:17:56.694Z,98532.03
2023-05-05T19:20:22.804Z,98529.34
2023-05-05T19:22:48.893Z,98541.94
2023-05-05T19:25:15.023Z,98543.78
2023-05-05T19:27:41.116Z,98549.16
2023-05-05T19:30:07.284Z,98554.53
2023-05-05T19:32:33.415Z,98553.47
2023-05-05T19:34:59.530Z,98549.97
2023-05-05T19:37:25.629Z,98549.16
2023-05-05T19:39:51.797Z,98551.84
2023-05-05T19:42:17.896Z,98551.84
2023-05-05T19:44:43.996Z,98544.84
2023-05-05T19:47:11.235Z,98542.97
2023-05-05T19:49:37.410Z,98542.16
2023-05-05T19:52:03.503Z,98535.75
2023-05-05T19:54:29.631Z,98531.44
2023-05-05T19:56:57.182Z,98543.78
2023-05-05T19:59:23.611Z,98545.66
2023-05-05T20:01:49.813Z,98554.53
2023-05-05T20:04:15.946Z,98552.91
2023-05-05T20:06:42.068Z,98544.84
2023-05-05T20:09:08.166Z,98547.53
2023-05-05T20:11:34.310Z,98547.53
2023-05-05T20:14:00.423Z,98548.34
2023-05-05T20:16:26.649Z,98549.38
2023-05-05T20:18:52.843Z,98554.72
2023-05-05T20:21:18.970Z,98558.25
2023-05-05T20:23:45.141Z,98560.09
2023-05-05T20:26:11.304Z,98551.22
2023-05-05T20:28:37.414Z,98554.97
2023-05-05T20:31:03.663Z,98560.31
2023-05-05T20:33:29.806Z,98558.47
2023-05-05T20:35:55.935Z,98557.66
2023-05-05T20:38:22.054Z,98563.81
2023-05-05T20:40:48.169Z,98555.78
2023-05-05T20:43:14.272Z,98551.44
2023-05-05T20:45:40.390Z,98549.59
2023-05-05T20:48:06.486Z,98556.78
2023-05-05T20:50:32.629Z,98554.97
2023-05-05T20:52:58.783Z,98553.31
2023-05-05T20:55:24.890Z,98548.75
2023-05-05T20:57:51.010Z,98541.75
2023-05-05T21:00:17.130Z,98546.31
2023-05-05T21:02:43.400Z,98564.03
2023-05-05T21:05:09.612Z,98553.31
2023-05-05T21:07:35.831Z,98558.66
2023-05-05T21:10:01.962Z,98557.84
2023-05-05T21:12:28.102Z,98563.22
2023-05-05T21:14:55.149Z,98565.88
2023-05-05T21:17:21.287Z,98562.41
2023-05-05T21:19:47.410Z,98573.13
2023-05-05T21:22:13.514Z,98581.16
2023-05-05T21:24:39.616Z,98573.13
2023-05-05T21:27:05.711Z,98563.41
2023-05-05T21:29:31.842Z,98567.75
2023-05-05T21:31:58.015Z,98560.72
2023-05-05T21:34:24.179Z,98567.16
2023-05-05T21:36:50.816Z,98557.22
2023-05-05T21:39:16.905Z,98558.06
2023-05-05T21:41:42.999Z,98567.16
2023-05-05T21:44:09.103Z,98561.78
2023-05-05T21:46:35.279Z,98567.16
2023-05-05T21:49:01.375Z,98569.81
2023-05-05T21:51:27.628Z,98566.34
2023-05-05T21:53:53.713Z,98565.50
2023-05-05T21:56:19.806Z,98562.84
2023-05-05T21:58:45.909Z,98560.16
2023-05-05T22:01:12.101Z,98554.78
2023-05-05T22:03:38.413Z,98556.63
2023-05-05T22:06:04.583Z,98552.09
2023-05-05T22:08:30.693Z,98556.63
2023-05-05T22:10:56.791Z,98553.94
2023-05-05T22:13:22.941Z,98551.25
2023-05-05T22:15:49.153Z,98561.16
2023-05-05T22:18:15.325Z,98555.81
2023-05-05T22:20:41.593Z,98556.84
2023-05-05T22:23:07.679Z,98554.19
2023-05-05T22:25:33.793Z,98567.59
2023-05-05T22:27:59.899Z,98572.09
2023-05-05T22:30:25.980Z,98564.91
2023-05-05T22:32:52.185Z,98563.25
2023-05-05T22:35:18.351Z,98563.25
2023-05-05T22:37:44.477Z,98565.91
2023-05-05T22:40:10.565Z,98566.72
2023-05-05T22:42:36.753Z,98571.28
2023-05-05T22:45:02.847Z,98568.59
2023-05-05T22:47:29.038Z,98573.16
2023-05-05T22:49:55.223Z,98575.00
2023-05-05T22:52:21.331Z,98573.16
2023-05-05T22:54:47.418Z,98574.19
2023-05-05T22:57:13.582Z,98580.38
2023-05-05T22:59:39.670Z,98570.66
2023-05-05T23:02:05.780Z,98562.63
2023-05-05T23:04:31.924Z,98574.41
2023-05-05T23:06:58.061Z,98564.50
2023-05-05T23:09:24.215Z,98568.84
2023-05-05T23:11:50.337Z,98571.72
2023-05-05T23:14:16.437Z,98576.25
2023-05-05T23:16:42.585Z,98578.94
2023-05-05T23:19:08.765Z,98570.91
2023-05-05T23:21:45.250Z,98572.78
2023-05-05T23:24:18.499Z,98578.13
2023-05-05T23:26:44.578Z,98564.94
2023-05-05T23:29:10.695Z,98571.91
2023-05-05T23:31:36.802Z,98566.56
2023-05-05T23:34:02.916Z,98571.09
2023-05-05T23:36:29.029Z,98568.44
2023-05-05T23:38:55.159Z,98574.84
2023-05-05T23:41:21.252Z,98575.66
2023-05-05T23:43:47.371Z,98578.34
2023-05-05T23:46:13.993Z,98570.50
2023-05-05T23:48:40.179Z,98575.84
2023-05-05T23:51:06.288Z,98567.81
2023-05-05T23:53:32.401Z,98572.34
2023-05-05T23:55:58.569Z,98567.00
2023-05-05T23:58:24.864Z,98566.19
